Zealand Delilah — PBZI — position and weather

sailwx.info

Track history (hours):
 
Tides and Currents Weather Stations Pressure Air Temp Water Temp Dewpoint Dewpoint Depression Visibility Wind Speed Wind Dir Waves Ship Positions

Zealand Delilah

Last reported at 2015-May-14 05:29 UTC. Time now 2015-May-27 19:59 UTC.
Position N 31°28' W 079°50'.
Warning: this ship's position is 13 days out of date.

Length 134 m; draft 7.5 m.

Type: Ship. MMSI: 245935000.

Date/timePositionNaut miles runAvg speedWind from/ knotsBaromVisibWave heightAir tempDewpointWater temp
2015-May-14 05:29N 31°28' W 079°50'1010.7
2015-May-14 04:33N 31°33' W 080°00'1110.8
2015-May-14 03:33N 31°39' W 080°11'1111.1
2015-May-14 02:32N 31°46' W 080°22'7 6.8
2015-May-14 01:33N 31°50' W 080°28'3 2.7
2015-May-14 00:33N 31°52' W 080°30'1211.8
2015-May-13 23:33N 31°58' W 080°42'1110.9
2015-May-13 22:33N 32°02' W 080°54'8 8.4
2015-May-13 21:33N 32°05' W 081°03'1 0.7
2015-May-13 20:29N 32°05' W 081°04'0 0.0
2015-May-13 19:26N 32°05' W 081°04'0 0.0
2015-May-13 18:32N 32°05' W 081°04'0 0.0
2015-May-13 17:32N 32°05' W 081°04'0 0.0
2015-May-13 16:32N 32°05' W 081°04'0 0.0
2015-May-13 15:26N 32°05' W 081°04'0 0.0
2015-May-13 14:32N 32°05' W 081°04'0 0.0
2015-May-13 13:32N 32°05' W 081°04'0 0.0
2015-May-13 12:29N 32°05' W 081°04'0 0.0
2015-May-13 11:31N 32°05' W 081°04'0 0.0
2015-May-13 10:31N 32°05' W 081°04'0 0.0
2015-May-13 09:31N 32°05' W 081°04'0 0.0
2015-May-13 08:31N 32°05' W 081°04'0 0.0
2015-May-13 07:32N 32°05' W 081°04'0 0.0
2015-May-13 06:31N 32°05' W 081°04'0 0.0
2015-May-13 05:31N 32°05' W 081°04'0 0.0
2015-May-13 04:31N 32°05' W 081°04'0 0.0
2015-May-13 03:31N 32°05' W 081°04'0 0.0
2015-May-13 02:28N 32°05' W 081°04'0 0.0
2015-May-13 01:22N 32°05' W 081°04'0 0.0
2015-May-13 00:28N 32°05' W 081°04'0 0.0
2015-May-12 23:31N 32°05' W 081°04'0 0.0
2015-May-12 22:33N 32°05' W 081°04'0 0.0
2015-May-12 21:33N 32°05' W 081°04'0 0.0
2015-May-12 20:33N 32°05' W 081°04'0 0.0
2015-May-12 19:33N 32°05' W 081°04'0 0.0
2015-May-12 18:33N 32°05' W 081°04'0 0.0
2015-May-12 17:33N 32°05' W 081°04'0 0.0
2015-May-12 16:27N 32°05' W 081°04'0 0.0
2015-May-12 15:15N 32°05' W 081°04'0 0.0
2015-May-12 14:18N 32°05' W 081°04'0 0.0
2015-May-12 13:09N 32°05' W 081°04'0 0.0
2015-May-12 12:30N 32°05' W 081°04'0 0.0
2015-May-12 11:33N 32°05' W 081°04'0 0.0
2015-May-12 09:33N 32°05' W 081°04'0 0.0
2015-May-12 07:27N 32°05' W 081°04'4 3.8
2015-May-12 06:29N 32°06' W 081°00'82 9.2
2015-May-11 21:33N 30°44' W 080°58'  
Track history (hours):
 
Tides and Currents Weather Stations Pressure Air Temp Water Temp Dewpoint Dewpoint Depression Visibility Wind Speed Wind Dir Waves Ship Positions

Zealand Delilah

Last reported at 2015-May-14 05:29 UTC. Time now 2015-May-27 19:59 UTC.
Position N 31°28' W 079°50'.
Warning: this ship's position is 13 days out of date.

Length 134 m; draft 7.5 m.

Type: Ship. MMSI: 245935000.

Date/timePositionNaut miles runAvg speedWind from/ knotsBaromVisibWave heightAir tempDewpointWater temp
2015-May-14 05:29N 31°28' W 079°50'1010.7
2015-May-14 04:33N 31°33' W 080°00'1110.8
2015-May-14 03:33N 31°39' W 080°11'1111.1
2015-May-14 02:32N 31°46' W 080°22'7 6.8
2015-May-14 01:33N 31°50' W 080°28'3 2.7
2015-May-14 00:33N 31°52' W 080°30'1211.8
2015-May-13 23:33N 31°58' W 080°42'1110.9
2015-May-13 22:33N 32°02' W 080°54'8 8.4
2015-May-13 21:33N 32°05' W 081°03'1 0.7
2015-May-13 20:29N 32°05' W 081°04'0 0.0
2015-May-13 19:26N 32°05' W 081°04'0 0.0
2015-May-13 18:32N 32°05' W 081°04'0 0.0
2015-May-13 17:32N 32°05' W 081°04'0 0.0
2015-May-13 16:32N 32°05' W 081°04'0 0.0
2015-May-13 15:26N 32°05' W 081°04'0 0.0
2015-May-13 14:32N 32°05' W 081°04'0 0.0
2015-May-13 13:32N 32°05' W 081°04'0 0.0
2015-May-13 12:29N 32°05' W 081°04'0 0.0
2015-May-13 11:31N 32°05' W 081°04'0 0.0
2015-May-13 10:31N 32°05' W 081°04'0 0.0
2015-May-13 09:31N 32°05' W 081°04'0 0.0
2015-May-13 08:31N 32°05' W 081°04'0 0.0
2015-May-13 07:32N 32°05' W 081°04'0 0.0
2015-May-13 06:31N 32°05' W 081°04'0 0.0
2015-May-13 05:31N 32°05' W 081°04'0 0.0
2015-May-13 04:31N 32°05' W 081°04'0 0.0
2015-May-13 03:31N 32°05' W 081°04'0 0.0
2015-May-13 02:28N 32°05' W 081°04'0 0.0
2015-May-13 01:22N 32°05' W 081°04'0 0.0
2015-May-13 00:28N 32°05' W 081°04'0 0.0
2015-May-12 23:31N 32°05' W 081°04'0 0.0
2015-May-12 22:33N 32°05' W 081°04'0 0.0
2015-May-12 21:33N 32°05' W 081°04'0 0.0
2015-May-12 20:33N 32°05' W 081°04'0 0.0
2015-May-12 19:33N 32°05' W 081°04'0 0.0
2015-May-12 18:33N 32°05' W 081°04'0 0.0
2015-May-12 17:33N 32°05' W 081°04'0 0.0
2015-May-12 16:27N 32°05' W 081°04'0 0.0
2015-May-12 15:15N 32°05' W 081°04'0 0.0
2015-May-12 14:18N 32°05' W 081°04'0 0.0
2015-May-12 13:09N 32°05' W 081°04'0 0.0
2015-May-12 12:30N 32°05' W 081°04'0 0.0
2015-May-12 11:33N 32°05' W 081°04'0 0.0
2015-May-12 09:33N 32°05' W 081°04'0 0.0
2015-May-12 07:27N 32°05' W 081°04'4 3.8
2015-May-12 06:29N 32°06' W 081°00'82 9.2
2015-May-11 21:33N 30°44' W 080°58'  

Dump ship's entire track history